Concord, CA (94524)

6:13 PM PST on December 17, 2014 (GMT -0800)
Iron Horse Trail | Change Station
CLOSE
Current Station
Personal Weather Station
Location: Concord, CA
Elevation: 49 ft
Nearby Weather Stations

Elev 49 ft 37.95 °N, 122.05 °W | Updated 5 minutes ago

Rain
Rain
51.6 °F
Feels Like 51.6 °F
N
2.2
Wind Variable Wind from SSE

Today
High -- | Low -- °F
--% Chance of Precip.
Yesterday
High -- | Low -- °F
Precip. -- in
7:18 AM 4:50 PM
Waning Crescent, 18% visible
Pressure 30.01 in
Visibility 6.0 miles
Clouds Scattered Clouds 2900 ft
Scattered Clouds 4700 ft
Overcast 6000 ft
Dew Point 50 °F
Humidity 96%
Rainfall 0.10 in
Snow Depth Not available.
UV 0 out of 12
Pollen 1.30 out of 12
Air Quality Not available.
Flu Activity Not available.
METAR KCCR 180153Z 16006KT 6SM RA SCT029 SCT047 OVC060 12/09 A3005 RMK AO2 SLP163 P0004 T01220089

More Conditions Fewer Conditions

Pressure 30.01 in
Visibility 6.0 miles
Clouds Scattered Clouds 2900 ft
Scattered Clouds 4700 ft
Overcast 6000 ft
Dew Point 50 °F
Humidity 96%
Rainfall 0.10 in
Snow Depth Not available.
UV 0 out of 12
Pollen 1.30 out of 12
Air Quality Not available.
Flu Activity Not available.
METAR KCCR 180153Z 16006KT 6SM RA SCT029 SCT047 OVC060 12/09 A3005 RMK AO2 SLP163 P0004 T01220089

More Conditions Fewer Conditions

10-Day Weather Forecast

Almanac

Astronomy

Dec. 17, 2014 Rise Set
Actual Time
Civil Twilight
Nautical Twilight
Astronomical Twilight
Moon
Length of Visible Light
Length of Day
Tomorrow will be .
, % of the Moon is Illuminated

Today's Extremes

State Highs State Lows

Community

WunderPhotos

Upload Photos

1,778,859 photos uploaded!

WunderBlogs® & News

Nearby

Air Quality

  Air Quality AQ Index Pollutant
Not available.

Snow Depth

Station Depth Elevation

Earthquake Activity

City Distance Mag. Time & Date
Minimum magnitude displayed is 2.5.

Coastal Water Temperatures

Place Temperature

Nearby Weather Stations